createdAt,value
2016-04-22T00:00:22.788Z,7.7
2016-04-22T00:01:22.791Z,7.77
2016-04-22T00:02:22.825Z,7.66
2016-04-22T00:03:22.874Z,7.8
2016-04-22T00:04:22.886Z,7.73
2016-04-22T00:05:22.920Z,7.79
2016-04-22T00:06:22.954Z,7.8
2016-04-22T00:07:22.973Z,7.75
2016-04-22T00:08:23.053Z,7.82
2016-04-22T00:09:23.041Z,7.76
2016-04-22T00:10:23.090Z,7.76
2016-04-22T00:11:23.124Z,7.8
2016-04-22T00:12:23.142Z,7.77
2016-04-22T00:13:23.192Z,7.58
2016-04-22T00:14:23.211Z,7.72
2016-04-22T00:15:23.244Z,7.69
2016-04-22T00:16:23.278Z,7.66
2016-04-22T00:17:23.296Z,7.58
2016-04-22T00:18:23.534Z,7.7
2016-04-22T00:19:37.552Z,7.8
2016-04-22T00:20:23.414Z,7.79
2016-04-22T00:21:23.432Z,7.83
2016-04-22T00:22:23.466Z,7.88
2016-04-22T00:23:23.500Z,7.85
2016-04-22T00:24:23.535Z,7.91
2016-04-22T00:25:23.568Z,7.88
2016-04-22T00:26:23.602Z,7.85
2016-04-22T00:27:23.636Z,7.83
2016-04-22T00:28:23.670Z,7.8
2016-04-22T00:29:23.704Z,7.83
2016-04-22T00:30:23.738Z,7.76
2016-04-22T00:31:23.757Z,7.8
2016-04-22T00:32:23.790Z,7.76
2016-04-22T00:33:23.824Z,7.75
2016-04-22T00:34:23.858Z,7.69
2016-04-22T00:35:23.892Z,7.79
2016-04-22T00:36:23.927Z,7.72
2016-04-22T00:37:23.946Z,7.61
2016-04-22T00:38:23.980Z,7.58
2016-04-22T00:39:24.013Z,7.57
2016-04-22T00:40:24.047Z,7.56
2016-04-22T00:41:24.082Z,7.45
2016-04-22T00:42:24.130Z,7.54
2016-04-22T00:43:24.148Z,7.47
2016-04-22T00:44:24.183Z,7.4
2016-04-22T00:45:24.217Z,7.4
2016-04-22T00:46:24.251Z,7.36
2016-04-22T00:47:24.284Z,7.28
2016-04-22T00:48:24.303Z,7.25
2016-04-22T00:49:24.336Z,7.29
2016-04-22T00:50:24.371Z,7.24
2016-04-22T00:51:24.404Z,7.24
2016-04-22T00:52:24.439Z,7.21
2016-04-22T00:53:24.473Z,7.15
2016-04-22T00:54:24.507Z,7.14
2016-04-22T00:55:24.540Z,7.03
2016-04-22T00:56:24.574Z,7.18
2016-04-22T00:57:24.608Z,7.18
2016-04-22T00:58:24.627Z,7.11
2016-04-22T00:59:24.661Z,7
2016-04-22T01:00:24.694Z,7.07
2016-04-22T01:01:24.728Z,6.96
2016-04-22T01:02:24.762Z,6.95
2016-04-22T01:03:24.796Z,6.99
2016-04-22T01:04:24.846Z,6.87
2016-04-22T01:05:24.880Z,6.89
2016-04-22T01:06:24.882Z,6.93
2016-04-22T01:07:24.916Z,6.95
2016-04-22T01:08:24.950Z,6.99
2016-04-22T01:09:24.984Z,7.14
2016-04-22T01:10:25.018Z,7.24
2016-04-22T01:11:25.068Z,7.14
2016-04-22T01:12:25.071Z,7.05
2016-04-22T01:13:25.104Z,7.03
2016-04-22T01:14:25.138Z,7.02
2016-04-22T01:15:25.173Z,6.99
2016-04-22T01:16:25.206Z,7.05
2016-04-22T01:17:25.240Z,6.89
2016-04-22T01:18:25.274Z,6.79
2016-04-22T01:19:25.323Z,6.78
2016-04-22T01:20:25.342Z,6.77
2016-04-22T01:21:25.376Z,6.69
2016-04-22T01:22:25.395Z,6.77
2016-04-22T01:23:25.428Z,6.69
2016-04-22T01:24:25.462Z,6.77
2016-04-22T01:25:25.496Z,6.69
2016-04-22T01:26:25.530Z,6.7
2016-04-22T01:27:25.548Z,6.77
2016-04-22T01:28:25.583Z,6.77
2016-04-22T01:29:25.616Z,6.79
2016-04-22T01:30:25.650Z,6.88
2016-04-22T01:31:25.700Z,6.81
2016-04-22T01:32:25.702Z,6.77
2016-04-22T01:33:25.752Z,6.69
2016-04-22T01:34:25.770Z,6.69
2016-04-22T01:35:25.805Z,6.62
2016-04-22T01:36:25.838Z,6.64
2016-04-22T01:37:25.872Z,6.67
2016-04-22T01:38:25.906Z,6.6
2016-04-22T01:39:25.940Z,6.52
2016-04-22T01:40:25.974Z,6.57
2016-04-22T01:41:26.008Z,6.63
2016-04-22T01:42:26.027Z,6.7
2016-04-22T01:43:26.076Z,6.7
2016-04-22T01:44:26.094Z,6.85
2016-04-22T01:45:26.128Z,6.97
2016-04-22T01:46:26.162Z,6.88
2016-04-22T01:47:26.196Z,6.87
2016-04-22T01:48:26.215Z,6.82
2016-04-22T01:49:26.248Z,6.81
2016-04-22T01:50:26.298Z,6.88
2016-04-22T01:51:26.316Z,6.88
2016-04-22T01:52:26.350Z,6.89
2016-04-22T01:53:26.384Z,6.92
2016-04-22T01:54:26.403Z,6.85
2016-04-22T01:55:26.452Z,6.93
2016-04-22T01:56:26.470Z,6.92
2016-04-22T01:57:26.504Z,7.02
2016-04-22T01:58:26.522Z,6.84
2016-04-22T01:59:26.556Z,6.82
2016-04-22T02:00:26.590Z,6.87
2016-04-22T02:01:26.625Z,6.79
2016-04-22T02:02:26.658Z,6.67
2016-04-22T02:03:26.692Z,6.63
2016-04-22T02:04:26.726Z,6.59
2016-04-22T02:05:26.760Z,6.48
2016-04-22T02:06:26.794Z,6.41
2016-04-22T02:07:26.828Z,6.44
2016-04-22T02:08:26.847Z,6.48
2016-04-22T02:09:26.880Z,6.51
2016-04-22T02:10:26.914Z,6.38
2016-04-22T02:11:26.949Z,6.2
2016-04-22T02:12:26.982Z,6.33
2016-04-22T02:13:27.000Z,6.24
2016-04-22T02:14:27.035Z,6.2
2016-04-22T02:15:27.068Z,6.24
2016-04-22T02:16:27.102Z,6.22
2016-04-22T02:17:27.136Z,6.31
2016-04-22T02:18:27.170Z,6.35
2016-04-22T02:19:27.204Z,6.33
2016-04-22T02:20:27.223Z,6.12
2016-04-22T02:21:27.257Z,5.94
2016-04-22T02:22:27.290Z,6.02
2016-04-22T02:23:27.340Z,5.99
2016-04-22T02:24:27.342Z,6.14
2016-04-22T02:25:27.392Z,6.04
2016-04-22T02:26:27.426Z,6.01
2016-04-22T02:27:27.445Z,5.91
2016-04-22T02:28:27.478Z,5.99
2016-04-22T02:29:27.512Z,5.94
2016-04-22T02:30:27.531Z,5.93
2016-04-22T02:31:27.580Z,5.8
2016-04-22T02:32:27.614Z,5.94
2016-04-22T02:33:27.632Z,5.9
2016-04-22T02:34:27.666Z,5.76
2016-04-22T02:35:27.700Z,5.66
2016-04-22T02:36:27.719Z,5.68
2016-04-22T02:37:27.768Z,5.65
2016-04-22T02:38:27.786Z,5.69
2016-04-22T02:39:27.820Z,5.73
2016-04-22T02:40:27.854Z,5.73
2016-04-22T02:41:27.872Z,5.71
2016-04-22T02:42:27.907Z,5.73
2016-04-22T02:43:27.941Z,5.82
2016-04-22T02:44:27.974Z,5.87
2016-04-22T02:45:27.993Z,5.89
2016-04-22T02:46:28.042Z,5.8
2016-04-22T02:47:28.060Z,5.91
2016-04-22T02:48:28.079Z,5.86
2016-04-22T02:49:28.128Z,5.82
2016-04-22T02:50:28.146Z,5.84
2016-04-22T02:51:28.181Z,5.97
2016-04-22T02:52:28.230Z,5.9
2016-04-22T02:53:28.264Z,6.02
2016-04-22T02:54:28.282Z,6.04
2016-04-22T02:55:28.316Z,6.09
2016-04-22T02:56:28.335Z,6.09
2016-04-22T02:57:28.369Z,6.01
2016-04-22T02:58:28.402Z,6.05
2016-04-22T02:59:28.437Z,6.02
2016-04-22T03:00:28.486Z,6.11
2016-04-22T03:01:28.489Z,6.19
2016-04-22T03:02:28.523Z,6.12
2016-04-22T03:03:28.556Z,5.93
2016-04-22T03:04:28.434Z,5.83
2016-04-22T03:05:28.624Z,6.01
2016-04-22T03:06:28.642Z,6.04
2016-04-22T03:07:28.677Z,6.01
2016-04-22T03:08:28.694Z,5.94
2016-04-22T03:09:28.760Z,5.94
2016-04-22T03:10:28.763Z,5.79
2016-04-22T03:11:28.797Z,5.73
2016-04-22T03:12:28.831Z,5.79
2016-04-22T03:13:28.849Z,5.87
2016-04-22T03:14:28.883Z,5.8
2016-04-22T03:15:28.917Z,5.84
2016-04-22T03:16:28.966Z,5.84
2016-04-22T03:17:28.985Z,5.98
2016-04-22T03:18:29.019Z,6.01
2016-04-22T03:19:28.881Z,6.17
2016-04-22T03:20:29.071Z,6.11
2016-04-22T03:21:29.105Z,5.99
2016-04-22T03:22:29.154Z,5.98
2016-04-22T03:23:29.173Z,5.89
2016-04-22T03:24:29.207Z,5.87
2016-04-22T03:25:29.241Z,5.98
2016-04-22T03:26:29.276Z,6.02
2016-04-22T03:27:29.324Z,5.98
2016-04-22T03:28:29.312Z,6.05
2016-04-22T03:29:29.361Z,6.08
2016-04-22T03:30:29.411Z,6.01
2016-04-22T03:31:29.414Z,5.91
2016-04-22T03:32:29.462Z,5.84
2016-04-22T03:33:29.481Z,5.79
2016-04-22T03:34:29.530Z,5.87
2016-04-22T03:35:29.549Z,5.93
2016-04-22T03:36:29.583Z,5.91
2016-04-22T03:37:29.600Z,5.83
2016-04-22T03:38:29.636Z,5.87
2016-04-22T03:39:29.685Z,5.93
2016-04-22T03:40:29.703Z,5.94
2016-04-22T03:41:29.722Z,5.99
2016-04-22T03:42:29.755Z,5.91
2016-04-22T03:43:29.789Z,5.76
2016-04-22T03:44:29.824Z,5.72
2016-04-22T03:45:29.857Z,5.69
2016-04-22T03:46:29.907Z,5.68
2016-04-22T03:47:29.910Z,5.56
2016-04-22T03:48:29.943Z,5.65
2016-04-22T03:49:29.977Z,5.69
2016-04-22T03:50:30.010Z,5.66
2016-04-22T03:51:30.045Z,5.75
2016-04-22T03:52:30.063Z,5.68
2016-04-22T03:53:30.098Z,5.75
2016-04-22T03:54:30.116Z,5.73
2016-04-22T03:55:30.182Z,5.89
2016-04-22T03:56:30.199Z,5.9
2016-04-22T03:57:30.218Z,5.94
2016-04-22T03:58:30.251Z,5.87
2016-04-22T03:59:30.285Z,6.04
2016-04-22T04:00:30.320Z,5.99
2016-04-22T04:01:30.353Z,5.91
2016-04-22T04:02:30.372Z,5.97
2016-04-22T04:03:30.405Z,6.02
2016-04-22T04:04:30.439Z,6.09
2016-04-22T04:05:30.473Z,6.09
2016-04-22T04:06:30.491Z,6.01
2016-04-22T04:07:30.542Z,6.01
2016-04-22T04:08:30.559Z,6.05
2016-04-22T04:09:30.594Z,6.05
2016-04-22T04:10:30.628Z,6.05
2016-04-22T04:11:30.661Z,6.22
2016-04-22T04:12:30.695Z,6.27
2016-04-22T04:13:30.744Z,6.26
2016-04-22T04:14:30.747Z,6.19
2016-04-22T04:15:30.782Z,6.07
2016-04-22T04:16:30.799Z,6.08
2016-04-22T04:17:30.833Z,6.14
2016-04-22T04:18:30.883Z,6.11
2016-04-22T04:19:30.917Z,6.11
2016-04-22T04:20:30.935Z,6.05
2016-04-22T04:21:30.813Z,6.09
2016-04-22T04:22:31.018Z,6.01
2016-04-22T04:23:31.074Z,6.04
2016-04-22T04:24:31.149Z,6.07
2016-04-22T04:25:31.221Z,6.09
2016-04-22T04:26:31.294Z,6.09
2016-04-22T04:27:31.356Z,6.05
2016-04-22T04:28:31.405Z,6.16
2016-04-22T04:29:31.454Z,6.05
2016-04-22T04:30:31.501Z,6.17
2016-04-22T04:31:31.534Z,6.22
2016-04-22T04:32:31.562Z,6.19
2016-04-22T04:33:31.617Z,6.19
2016-04-22T04:34:31.641Z,6.19
2016-04-22T04:35:31.679Z,6.14
2016-04-22T04:36:31.719Z,6.14
2016-04-22T04:37:31.756Z,6.02
2016-04-22T04:38:31.792Z,6.19
2016-04-22T04:39:31.828Z,6.27
2016-04-22T04:40:31.848Z,6.28
2016-04-22T04:41:31.900Z,6.45
2016-04-22T04:42:31.919Z,6.56
2016-04-22T04:43:31.860Z,6.59
2016-04-22T04:44:31.972Z,6.41
2016-04-22T04:45:32.022Z,6.6
2016-04-22T04:46:32.041Z,6.6
2016-04-22T04:47:32.090Z,6.48
2016-04-22T04:48:32.126Z,6.42
2016-04-22T04:49:32.129Z,6.54
2016-04-22T04:50:32.194Z,6.54
2016-04-22T04:51:32.197Z,6.52
2016-04-22T04:52:32.231Z,6.38
2016-04-22T04:53:32.281Z,6.59
2016-04-22T04:54:32.299Z,6.64
2016-04-22T04:55:32.333Z,6.69
2016-04-22T04:56:32.351Z,6.62
2016-04-22T04:57:32.401Z,6.72
2016-04-22T04:58:32.435Z,6.56
2016-04-22T04:59:32.453Z,6.66
2016-04-22T05:00:32.471Z,6.62
2016-04-22T05:01:32.505Z,6.69
2016-04-22T05:02:32.554Z,6.67
2016-04-22T05:03:32.573Z,6.74
2016-04-22T05:04:32.623Z,6.7
2016-04-22T05:05:32.688Z,6.78
2016-04-22T05:06:32.676Z,6.74
2016-04-22T05:07:32.709Z,6.52
2016-04-22T05:08:32.728Z,6.54
2016-04-22T05:09:32.606Z,6.64
2016-04-22T05:10:32.795Z,6.82
2016-04-22T05:11:32.830Z,6.81
2016-04-22T05:12:32.864Z,6.96
2016-04-22T05:13:32.898Z,7.06
2016-04-22T05:14:32.932Z,7.13
2016-04-22T05:15:32.951Z,7.28
2016-04-22T05:16:33.000Z,7.14
2016-04-22T05:17:33.018Z,7.24
2016-04-22T05:18:33.052Z,7.42
2016-04-22T05:19:33.087Z,7.25
2016-04-22T05:20:33.120Z,7.21
2016-04-22T05:21:33.154Z,7.1
2016-04-22T05:22:33.173Z,7.17
2016-04-22T05:23:33.222Z,7.03
2016-04-22T05:24:33.256Z,7
2016-04-22T05:25:33.274Z,7.11
2016-04-22T05:26:33.292Z,7.47
2016-04-22T05:27:33.326Z,7.8
2016-04-22T05:28:33.361Z,8.03
2016-04-22T05:29:33.394Z,8.36
2016-04-22T05:30:33.428Z,8.61
2016-04-22T05:31:33.462Z,8.67
2016-04-22T05:32:33.496Z,8.52
2016-04-22T05:33:33.530Z,8.53
2016-04-22T05:34:33.564Z,8.37
2016-04-22T05:35:33.613Z,8.53
2016-04-22T05:36:33.632Z,8.73
2016-04-22T05:37:33.650Z,8.97
2016-04-22T05:38:33.685Z,8.92
2016-04-22T05:39:33.719Z,9.21
2016-04-22T05:40:33.751Z,9.37
2016-04-22T05:41:33.802Z,9.22
2016-04-22T05:42:33.804Z,9.08
2016-04-22T05:43:33.854Z,9.13
2016-04-22T05:44:33.888Z,8.87
2016-04-22T05:45:33.906Z,8.91
2016-04-22T05:46:33.956Z,8.6
2016-04-22T05:47:33.990Z,8.7
2016-04-22T05:48:34.023Z,8.38
2016-04-22T05:49:34.042Z,8.18
2016-04-22T05:50:34.075Z,8.28
2016-04-22T05:51:34.140Z,8.1
2016-04-22T05:52:34.143Z,8.08
2016-04-22T05:53:34.177Z,8.08
2016-04-22T05:54:34.211Z,8.1
2016-04-22T05:55:34.245Z,8.19
2016-04-22T05:56:34.279Z,8.2
2016-04-22T05:57:34.297Z,8.36
2016-04-22T05:58:34.364Z,8.67
2016-04-22T05:59:34.381Z,8.97
2016-04-22T06:00:34.415Z,9.11
2016-04-22T06:01:34.449Z,9.04
2016-04-22T06:02:34.467Z,8.64
2016-04-22T06:03:34.502Z,8.38
2016-04-22T06:04:34.536Z,8.15
2016-04-22T06:05:34.585Z,7.8
2016-04-22T06:06:34.603Z,7.6
2016-04-22T06:07:34.638Z,7.63
2016-04-22T06:08:34.531Z,7.4
2016-04-22T06:09:34.704Z,7.38
2016-04-22T06:10:34.738Z,7.53
2016-04-22T06:11:34.773Z,7.61
2016-04-22T06:12:34.807Z,7.85
2016-04-22T06:13:34.840Z,7.9
2016-04-22T06:14:34.891Z,8.01
2016-04-22T06:15:34.892Z,8.05
2016-04-22T06:16:34.942Z,8.52
2016-04-22T06:17:34.976Z,8.49
2016-04-22T06:18:34.995Z,8.76
2016-04-22T06:19:35.028Z,9.18
2016-04-22T06:20:35.078Z,9.19
2016-04-22T06:21:35.096Z,9.28
2016-04-22T06:22:35.130Z,9.11
2016-04-22T06:23:35.180Z,9.1
2016-04-22T06:24:35.198Z,9.23
2016-04-22T06:25:35.232Z,9.72
2016-04-22T06:26:35.267Z,9.62
2016-04-22T06:27:35.300Z,9.59
2016-04-22T06:28:35.334Z,9.76
2016-04-22T06:29:35.352Z,9.41
2016-04-22T06:30:35.403Z,9.43
2016-04-22T06:31:35.436Z,9.8
2016-04-22T06:32:35.486Z,9.91
2016-04-22T06:33:35.504Z,10.15
2016-04-22T06:34:35.522Z,10.33
2016-04-22T06:35:35.556Z,10.04
2016-04-22T06:36:35.591Z,9.84
2016-04-22T06:37:36.452Z,9.76
2016-04-22T06:38:35.658Z,9.34
2016-04-22T06:39:35.707Z,9.4
2016-04-22T06:40:35.726Z,9.47
2016-04-22T06:41:35.760Z,9.5
2016-04-22T06:42:35.637Z,9.56
2016-04-22T06:43:35.827Z,9.4
2016-04-22T06:44:35.862Z,9.34
2016-04-22T06:45:35.911Z,9.13
2016-04-22T06:46:35.929Z,8.82
2016-04-22T06:47:35.807Z,8.61
2016-04-22T06:48:35.998Z,8.55
2016-04-22T06:49:36.032Z,8.53
2016-04-22T06:50:36.081Z,8.38
2016-04-22T06:51:36.115Z,8.34
2016-04-22T06:52:37.258Z,8.34
2016-04-22T06:53:36.168Z,8.3
2016-04-22T06:54:36.200Z,8.37
2016-04-22T06:55:36.250Z,8.56
2016-04-22T06:56:36.269Z,8.49
2016-04-22T06:57:36.959Z,8.44
2016-04-22T06:58:36.337Z,8.36
2016-04-22T06:59:36.356Z,8.1
2016-04-22T07:00:36.405Z,8.1
2016-04-22T07:01:36.438Z,8.12
2016-04-22T07:02:38.535Z,8
2016-04-22T07:03:36.491Z,8.15
2016-04-22T07:04:36.541Z,8.33
2016-04-22T07:05:42.496Z,8.42
2016-04-22T07:06:36.608Z,8.34
2016-04-22T07:07:37.767Z,8.36
2016-04-22T07:08:36.660Z,8.53
2016-04-22T07:09:36.694Z,8.6
2016-04-22T07:10:36.728Z,8.84
2016-04-22T07:11:36.763Z,8.79
2016-04-22T07:12:37.703Z,8.66
2016-04-22T07:13:36.815Z,8.82
2016-04-22T07:14:36.880Z,8.99
2016-04-22T07:15:36.898Z,8.91
2016-04-22T07:16:36.932Z,8.66
2016-04-22T07:17:37.919Z,8.85
2016-04-22T07:18:36.984Z,8.91
2016-04-22T07:19:37.018Z,8.85
2016-04-22T07:20:37.052Z,9.1
2016-04-22T07:21:37.086Z,9.31
2016-04-22T07:22:38.885Z,9.25
2016-04-22T07:23:37.154Z,9.31
2016-04-22T07:24:37.187Z,9.39
2016-04-22T07:25:37.222Z,9.62
2016-04-22T07:26:37.256Z,9.61
2016-04-22T07:27:37.414Z,9.56
2016-04-22T07:28:37.308Z,8.95
2016-04-22T07:29:37.358Z,9.06
2016-04-22T07:30:37.407Z,9
2016-04-22T07:31:37.426Z,8.97
2016-04-22T07:32:39.866Z,9.02
2016-04-22T07:33:37.477Z,8.94
2016-04-22T07:34:37.528Z,8.99
2016-04-22T07:35:37.545Z,8.94
2016-04-22T07:36:37.580Z,8.87
2016-04-22T07:37:37.520Z,8.91
2016-04-22T07:38:37.663Z,8.84
2016-04-22T07:39:37.713Z,8.84
2016-04-22T07:40:37.731Z,9.02
2016-04-22T07:41:37.749Z,8.91
2016-04-22T07:42:39.393Z,8.87
2016-04-22T07:43:37.817Z,9
2016-04-22T07:44:37.851Z,9.06
2016-04-22T07:45:37.885Z,9.1
2016-04-22T07:46:37.935Z,8.91
2016-04-22T07:47:38.937Z,9.03
2016-04-22T07:48:37.987Z,9.16
2016-04-22T07:49:38.021Z,9.25
2016-04-22T07:50:38.039Z,9.11
2016-04-22T07:51:38.088Z,9
2016-04-22T07:52:40.201Z,8.91
2016-04-22T07:53:38.156Z,8.87
2016-04-22T07:54:38.190Z,8.7
2016-04-22T07:55:38.209Z,8.78
2016-04-22T07:56:38.243Z,8.82
2016-04-22T07:57:38.293Z,8.66
2016-04-22T07:58:38.312Z,8.78
2016-04-22T07:59:38.345Z,8.67
2016-04-22T08:00:38.395Z,8.69
2016-04-22T08:01:38.412Z,8.73
2016-04-22T08:02:38.602Z,8.67
2016-04-22T08:03:38.481Z,8.78
2016-04-22T08:04:38.499Z,8.81
2016-04-22T08:05:38.547Z,9.03
2016-04-22T08:06:38.583Z,9.14
2016-04-22T08:07:38.631Z,9.28
2016-04-22T08:08:38.634Z,9.23
2016-04-22T08:09:38.684Z,9.26
2016-04-22T08:10:38.718Z,9.46
2016-04-22T08:11:38.767Z,9.18
2016-04-22T08:12:38.786Z,8.91
2016-04-22T08:13:38.882Z,9.03
2016-04-22T08:14:39.072Z,9
2016-04-22T08:15:38.888Z,9.18
2016-04-22T08:16:38.905Z,8.85
2016-04-22T08:17:38.955Z,8.92
2016-04-22T08:18:38.974Z,9.16
2016-04-22T08:19:39.008Z,9.41
2016-04-22T08:20:39.041Z,9.44
2016-04-22T08:21:39.076Z,9.36
2016-04-22T08:22:39.110Z,9.48
2016-04-22T08:23:39.143Z,9.14
2016-04-22T08:24:39.162Z,9.25
2016-04-22T08:25:39.212Z,9.21
2016-04-22T08:26:39.245Z,9.14
2016-04-22T08:27:39.279Z,9.14
2016-04-22T08:28:39.313Z,9.28
2016-04-22T08:29:39.347Z,9.32
2016-04-22T08:30:39.381Z,9.23
2016-04-22T08:31:39.400Z,9.16
2016-04-22T08:32:39.448Z,9.23
2016-04-22T08:33:39.467Z,9.39
2016-04-22T08:34:39.517Z,9.48
2016-04-22T08:35:39.550Z,9.36
2016-04-22T08:36:39.585Z,9.32
2016-04-22T08:37:39.619Z,9.31
2016-04-22T08:38:39.636Z,9.5
2016-04-22T08:39:39.671Z,9.54
2016-04-22T08:40:39.705Z,9.76
2016-04-22T08:41:39.755Z,9.86
2016-04-22T08:42:39.789Z,9.95
2016-04-22T08:43:39.807Z,10.3
2016-04-22T08:44:39.763Z,10.63
2016-04-22T08:45:39.891Z,10.44
2016-04-22T08:46:39.940Z,10.33
2016-04-22T08:47:39.958Z,10.01
2016-04-22T08:48:39.977Z,9.99
2016-04-22T08:49:40.010Z,10.59
2016-04-22T08:50:40.060Z,11.27
2016-04-22T08:51:40.093Z,11.5
2016-04-22T08:52:40.128Z,11.77
2016-04-22T08:53:40.162Z,12.02
2016-04-22T08:54:40.196Z,12.18
2016-04-22T08:55:40.246Z,11.86
2016-04-22T08:56:40.263Z,10.81
2016-04-22T08:57:40.281Z,11.05
2016-04-22T08:58:40.347Z,11.14
2016-04-22T08:59:40.366Z,11.29
2016-04-22T09:00:40.399Z,11.68
2016-04-22T09:01:40.449Z,11.81
2016-04-22T09:02:40.467Z,11.88
2016-04-22T09:03:40.548Z,11.83
2016-04-22T09:04:40.551Z,11.43
2016-04-22T09:05:40.600Z,11.04
2016-04-22T09:06:40.603Z,10.84
2016-04-22T09:07:40.653Z,10.86
2016-04-22T09:08:40.671Z,10.56
2016-04-22T09:09:40.736Z,10.42
2016-04-22T09:10:40.755Z,10.71
2016-04-22T09:11:40.819Z,10.93
2016-04-22T09:12:40.822Z,11.02
2016-04-22T09:13:40.855Z,11.12
2016-04-22T09:14:40.936Z,11.26
2016-04-22T09:15:40.987Z,11.68
2016-04-22T09:16:40.958Z,11.87
2016-04-22T09:17:41.008Z,12.15
2016-04-22T09:18:41.041Z,12.35
2016-04-22T09:19:41.091Z,12.58
2016-04-22T09:20:41.125Z,12.73
2016-04-22T09:21:41.159Z,12.58
2016-04-22T09:22:41.193Z,12.53
2016-04-22T09:23:41.218Z,12.4
2016-04-22T09:24:41.252Z,12.57
2016-04-22T09:25:41.286Z,12.57
2016-04-22T09:26:41.336Z,12.43
2016-04-22T09:27:41.353Z,12.15
2016-04-22T09:28:41.404Z,12.04
2016-04-22T09:29:41.484Z,11.75
2016-04-22T09:30:41.486Z,11.7
2016-04-22T09:31:41.506Z,11.55
2016-04-22T09:32:41.539Z,11.5
2016-04-22T09:33:41.572Z,11.54
2016-04-22T09:34:41.622Z,11.59
2016-04-22T09:35:41.673Z,11.45
2016-04-22T09:36:41.691Z,11.41
2016-04-22T09:37:41.726Z,11.22
2016-04-22T09:38:41.759Z,10.94
2016-04-22T09:39:41.794Z,10.81
2016-04-22T09:40:41.827Z,11.05
2016-04-22T09:41:41.861Z,11.4
2016-04-22T09:42:42.098Z,11.57
2016-04-22T09:43:41.944Z,11.68
2016-04-22T09:44:41.994Z,11.68
2016-04-22T09:45:41.997Z,11.95
2016-04-22T09:46:42.047Z,12.07
2016-04-22T09:47:42.081Z,12.09
2016-04-22T09:48:42.130Z,11.72
2016-04-22T09:49:42.164Z,11.8
2016-04-22T09:50:42.182Z,11.63
2016-04-22T09:51:42.216Z,11.66
2016-04-22T09:52:42.281Z,11.75
2016-04-22T09:53:42.315Z,11.66
2016-04-22T09:54:42.334Z,11.73
2016-04-22T09:55:42.383Z,11.5
2016-04-22T09:56:42.402Z,11.37
2016-04-22T09:57:42.451Z,11.25
2016-04-22T09:58:42.485Z,11.44
2016-04-22T09:59:42.503Z,11.48
2016-04-22T10:00:42.553Z,11.37
2016-04-22T10:01:42.587Z,11.22
2016-04-22T10:02:42.620Z,11.17
2016-04-22T10:03:42.655Z,10.87
2016-04-22T10:04:42.703Z,10.86
2016-04-22T10:05:42.754Z,10.94
2016-04-22T10:06:42.756Z,11.15
2016-04-22T10:07:42.806Z,11.36
2016-04-22T10:13:44.040Z,11.54
2016-04-22T10:14:44.058Z,11.57
2016-04-22T10:15:44.093Z,11.8
2016-04-22T10:16:44.127Z,11.88
2016-04-22T10:17:44.160Z,11.29
2016-04-22T10:18:44.210Z,11.41
2016-04-22T10:19:44.276Z,11.65
2016-04-22T10:20:44.279Z,11.63
2016-04-22T10:21:44.312Z,11.62
2016-04-22T10:22:44.330Z,11.54
2016-04-22T10:23:44.364Z,11.52
2016-04-22T10:24:44.429Z,11.55
2016-04-22T10:25:44.463Z,11.47
2016-04-22T10:26:44.465Z,11.22
2016-04-22T10:27:44.547Z,11.36
2016-04-22T10:28:44.550Z,11.37
2016-04-22T10:29:44.631Z,11.47
2016-04-22T10:30:44.617Z,11.47
2016-04-22T10:31:44.683Z,11.66
2016-04-22T10:32:44.701Z,11.78
2016-04-22T10:33:44.814Z,12.03
2016-04-22T10:34:44.770Z,12.12
2016-04-22T10:35:44.803Z,12.29
2016-04-22T10:36:44.821Z,12.37
2016-04-22T10:37:44.870Z,12.13
2016-04-22T10:38:44.905Z,12.06
2016-04-22T10:39:44.939Z,12.15
2016-04-22T10:40:44.972Z,12.18
2016-04-22T10:41:45.022Z,12.37
2016-04-22T10:42:45.056Z,12.55
2016-04-22T10:43:45.075Z,12.75
2016-04-22T10:44:45.155Z,12.61
2016-04-22T10:45:45.142Z,12.55
2016-04-22T10:46:45.191Z,12.57
2016-04-22T10:47:45.210Z,12.43
2016-04-22T10:48:45.260Z,12.57
2016-04-22T10:49:45.293Z,12.53
2016-04-22T10:50:45.343Z,12.54
2016-04-22T10:51:59.548Z,12.78
2016-04-22T10:52:45.395Z,12.8
2016-04-22T10:53:45.429Z,12.8
2016-04-22T10:54:45.479Z,12.55
2016-04-22T10:55:45.512Z,12.5
2016-04-22T10:56:45.546Z,12.76
2016-04-22T10:57:45.581Z,12.79
2016-04-22T10:58:45.614Z,12.93
2016-04-22T10:59:45.679Z,13.2
2016-04-22T11:00:45.698Z,13.22
2016-04-22T11:01:45.779Z,13.2
2016-04-22T11:02:45.766Z,13.22
2016-04-22T11:03:45.800Z,13.23
2016-04-22T11:04:45.833Z,13.15
2016-04-22T11:05:45.868Z,13.18
2016-04-22T11:06:45.903Z,13.09
2016-04-22T11:07:45.936Z,13.05
2016-04-22T11:08:45.969Z,13.03
2016-04-22T11:09:46.019Z,13.05
2016-04-22T11:10:46.069Z,12.82
2016-04-22T11:11:46.071Z,12.62
2016-04-22T11:12:46.121Z,12.47
2016-04-22T11:13:46.155Z,12.5
2016-04-22T11:14:46.205Z,12.46
2016-04-22T11:15:46.238Z,12.67
2016-04-22T11:16:46.272Z,12.67
2016-04-22T11:17:46.540Z,12.75
2016-04-22T11:18:46.340Z,12.58
2016-04-22T11:19:46.374Z,12.45
2016-04-22T11:20:46.408Z,12.4
2016-04-22T11:21:46.466Z,12.54
2016-04-22T11:22:46.467Z,12.6
2016-04-22T11:23:46.517Z,12.67
2016-04-22T11:24:46.582Z,12.6
2016-04-22T11:25:46.584Z,12.7
2016-04-22T11:26:46.775Z,12.67
2016-04-22T11:27:47.512Z,12.73
2016-04-22T11:28:47.734Z,12.65
2016-04-22T11:29:47.111Z,12.86
2016-04-22T11:30:47.598Z,12.85
2016-04-22T11:31:47.695Z,12.91
2016-04-22T11:32:46.839Z,13.04
2016-04-22T11:33:46.872Z,12.85
2016-04-22T11:34:46.905Z,12.64
2016-04-22T11:35:46.956Z,12.68
2016-04-22T11:36:46.974Z,12.54
2016-04-22T11:37:47.007Z,12.46
2016-04-22T11:38:47.057Z,12.27
2016-04-22T11:39:47.091Z,12.36
2016-04-22T11:40:47.172Z,12.61
2016-04-22T11:41:47.159Z,12.54
2016-04-22T11:42:47.177Z,12.58
2016-04-22T11:43:47.227Z,12.43
2016-04-22T11:44:47.293Z,12.54
2016-04-22T11:45:47.295Z,12.54
2016-04-22T11:46:47.172Z,12.42
2016-04-22T11:47:47.362Z,12.5
2016-04-22T11:48:47.396Z,12.54
2016-04-22T11:49:47.446Z,12.78
2016-04-22T11:50:47.464Z,12.76
2016-04-22T11:51:47.498Z,12.76
2016-04-22T11:52:47.548Z,12.73
2016-04-22T11:53:47.613Z,12.75
2016-04-22T11:54:47.615Z,12.93
2016-04-22T11:55:48.431Z,13.01
2016-04-22T11:56:47.745Z,13.05
2016-04-22T11:57:47.718Z,13.03
2016-04-22T11:58:47.751Z,12.98
2016-04-22T11:59:47.786Z,13.11
2016-04-22T12:00:48.132Z,13.15
2016-04-22T12:01:47.869Z,13.2
2016-04-22T12:02:47.903Z,13.13
2016-04-22T12:03:47.937Z,13.05
2016-04-22T12:04:47.971Z,13.18
2016-04-22T12:05:48.005Z,13.28
2016-04-22T12:06:48.039Z,13.35
2016-04-22T12:07:48.088Z,13.35
2016-04-22T12:08:48.122Z,13.15
2016-04-22T12:09:48.156Z,13.23
2016-04-22T12:10:48.190Z,13.35
2016-04-22T12:11:48.224Z,13.46
2016-04-22T12:12:48.257Z,13.72
2016-04-22T12:13:48.291Z,13.65
2016-04-22T12:14:48.357Z,13.62
2016-04-22T12:15:48.485Z,13.67
2016-04-22T12:16:48.441Z,13.27
2016-04-22T12:17:48.444Z,13.08
2016-04-22T12:18:48.477Z,12.98
2016-04-22T12:19:48.700Z,13.12
2016-04-22T12:20:48.766Z,13.16
2016-04-22T12:21:48.581Z,13.28
2016-04-22T12:22:48.631Z,13.44
2016-04-22T12:23:48.664Z,13.53
2016-04-22T12:24:48.698Z,13.57
2016-04-22T12:25:48.763Z,13.3
2016-04-22T12:26:48.860Z,13.49
2016-04-22T12:27:48.800Z,13.49
2016-04-22T12:28:48.834Z,13.3
2016-04-22T12:29:48.884Z,13.33
2016-04-22T12:30:48.918Z,13.3
2016-04-22T12:31:48.999Z,13.37
2016-04-22T12:32:48.985Z,13.22
2016-04-22T12:33:49.019Z,13.15
2016-04-22T12:34:49.069Z,13.15
2016-04-22T12:35:49.088Z,12.98
2016-04-22T12:36:49.122Z,12.87
2016-04-22T12:37:49.155Z,12.91
2016-04-22T12:38:49.205Z,13.11
2016-04-22T12:39:49.239Z,13.13
2016-04-22T12:40:49.273Z,13.18
2016-04-22T12:41:49.307Z,13.31
2016-04-22T12:42:49.340Z,13.47
2016-04-22T12:43:49.374Z,13.74
2016-04-22T12:44:49.409Z,13.7
2016-04-22T12:45:49.442Z,13.71
2016-04-22T12:46:49.492Z,13.67
2016-04-22T12:47:49.525Z,13.67
2016-04-22T12:48:49.559Z,13.74
2016-04-22T12:49:49.594Z,13.53
2016-04-22T12:50:49.628Z,13.16
2016-04-22T12:51:49.661Z,13.18
2016-04-22T12:52:49.712Z,13.25
2016-04-22T12:53:49.745Z,13.13
2016-04-22T12:54:49.763Z,13.16
2016-04-22T12:55:49.813Z,13.41
2016-04-22T12:56:49.847Z,13.47
2016-04-22T12:57:49.897Z,13.49
2016-04-22T12:58:49.931Z,13.65
2016-04-22T12:59:49.950Z,13.77
2016-04-22T13:00:49.983Z,13.89
2016-04-22T13:01:50.016Z,13.97
2016-04-22T13:02:50.066Z,13.9
2016-04-22T13:03:50.100Z,14.03
2016-04-22T13:04:50.123Z,14.11
2016-04-22T13:05:50.173Z,14.03
2016-04-22T13:06:50.207Z,13.74
2016-04-22T13:07:50.257Z,13.68
2016-04-22T13:08:50.274Z,13.74
2016-04-22T13:09:50.324Z,13.9
2016-04-22T13:10:50.405Z,13.89
2016-04-22T13:11:50.408Z,13.85
2016-04-22T13:12:50.410Z,13.75
2016-04-22T13:13:50.538Z,13.71
2016-04-22T13:14:50.495Z,13.71
2016-04-22T13:15:50.529Z,13.83
2016-04-22T13:16:50.578Z,14
2016-04-22T13:17:50.600Z,13.99